Time;durP1;ratioP1;P1;durP2;ratioP2;P2;SDS_P1;SDS_P2;PMS_P1;PMS_P2;Temp;Humidity;BMP_temperature;BMP_pressure;BME280_temperature;BME280_humidity;BME280_pressure;Samples;Min_cycle;Max_cycle;Signal;HPM_P1;HPM_P2
2022/08/13 00:00:45;;;;;;;;;22.67;22.33;;;;;;;;6490525;39;8984;-61
2022/08/13 00:13:14;;;;;;;;;26.00;24.00;;;;;;;;6489750;39;8961;-62
2022/08/13 00:19:18;;;;;;;;;23.67;22.67;;;;;;;;6490406;46;8946;-61
2022/08/13 00:25:21;;;;;;;;;25.00;22.67;;;;;;;;6489909;31;8898;-61
2022/08/13 00:31:26;;;;;;;;;27.00;23.33;;;;;;;;6490565;39;8795;-62
2022/08/13 00:37:28;;;;;;;;;26.67;25.33;;;;;;;;6489334;46;8965;-62
2022/08/13 00:43:50;;;;;;;;;33.67;25.67;;;;;;;;6490781;31;8961;-62
2022/08/13 00:49:55;;;;;;;;;25.67;22.33;;;;;;;;6489259;31;8927;-60
2022/08/13 00:56:02;;;;;;;;;24.00;23.00;;;;;;;;6489717;39;8890;-61
2022/08/13 01:02:04;;;;;;;;;28.00;25.00;;;;;;;;6490358;39;8978;-61
2022/08/13 01:08:08;;;;;;;;;25.33;23.33;;;;;;;;6488945;39;9811;-62
2022/08/13 01:14:16;;;;;;;;;27.00;25.67;;;;;;;;6490354;31;8962;-61
2022/08/13 01:20:25;;;;;;;;;33.33;29.67;;;;;;;;6489488;39;9621;-61
2022/08/13 01:26:34;;;;;;;;;22.33;20.67;;;;;;;;6488422;39;8863;-61
2022/08/13 01:32:42;;;;;;;;;24.00;23.00;;;;;;;;6489004;31;8957;-61
2022/08/13 01:39:05;;;;;;;;;27.67;25.00;;;;;;;;6489104;31;8887;-61
2022/08/13 01:45:18;;;;;;;;;29.33;27.00;;;;;;;;6490555;31;9543;-61
2022/08/13 01:51:34;;;;;;;;;23.67;20.67;;;;;;;;6488662;46;8934;-61
2022/08/13 01:57:45;;;;;;;;;24.00;22.67;;;;;;;;6490559;31;8836;-62
2022/08/13 02:03:57;;;;;;;;;26.00;22.33;;;;;;;;6488757;31;9160;-62
2022/08/13 02:09:59;;;;;;;;;32.00;30.00;;;;;;;;6489030;31;8887;-60
2022/08/13 02:16:02;;;;;;;;;25.33;25.33;;;;;;;;6488838;39;8887;-61
2022/08/13 02:22:05;;;;;;;;;26.33;24.67;;;;;;;;6489251;31;9046;-62
2022/08/13 02:28:10;;;;;;;;;26.67;25.67;;;;;;;;6489196;39;8939;-62
2022/08/13 02:34:28;;;;;;;;;30.00;30.00;;;;;;;;6489067;39;8942;-61
2022/08/13 02:46:54;;;;;;;;;26.67;22.33;;;;;;;;6488128;47;8970;-62
2022/08/13 02:52:56;;;;;;;;;35.00;29.33;;;;;;;;6487698;31;8983;-61
2022/08/13 02:59:00;;;;;;;;;30.00;27.67;;;;;;;;6488518;47;8942;-62
2022/08/13 03:05:03;;;;;;;;;30.00;24.67;;;;;;;;6488233;39;8915;-62
2022/08/13 03:11:07;;;;;;;;;32.00;29.00;;;;;;;;6489634;39;9367;-61
2022/08/13 03:17:11;;;;;;;;;32.33;31.33;;;;;;;;6488862;31;8994;-61
2022/08/13 03:23:24;;;;;;;;;29.67;29.67;;;;;;;;6489909;46;8934;-61
2022/08/13 03:29:28;;;;;;;;;28.33;27.00;;;;;;;;6490955;31;8859;-61
2022/08/13 03:35:51;;;;;;;;;32.33;29.33;;;;;;;;6489114;39;8993;-60
2022/08/13 03:41:59;;;;;;;;;29.33;26.00;;;;;;;;6309852;31;10001182;-61
2022/08/13 03:48:01;;;;;;;;;30.67;28.67;;;;;;;;6490627;39;8982;-61
2022/08/13 03:54:04;;;;;;;;;25.67;24.67;;;;;;;;6490514;31;8851;-62
2022/08/13 04:00:12;;;;;;;;;26.33;26.00;;;;;;;;6490718;39;9555;-61
2022/08/13 04:06:19;;;;;;;;;29.67;26.67;;;;;;;;6490362;39;8875;-61
2022/08/13 04:12:28;;;;;;;;;32.67;31.33;;;;;;;;6490223;46;8926;-61
2022/08/13 04:18:35;;;;;;;;;25.67;24.67;;;;;;;;6489730;39;8875;-61
2022/08/13 04:24:38;;;;;;;;;29.67;27.00;;;;;;;;6490508;39;8847;-61
2022/08/13 04:38:48;;;;;;;;;29.00;23.33;;;;;;;;6493960;31;9020;-62
2022/08/13 04:44:51;;;;;;;;;23.00;23.00;;;;;;;;6490949;39;8917;-61
2022/08/13 04:50:55;;;;;;;;;30.33;26.00;;;;;;;;6491547;39;8809;-62
2022/08/13 04:57:03;;;;;;;;;28.67;28.67;;;;;;;;6489776;39;8930;-62
2022/08/13 05:03:09;;;;;;;;;26.00;25.33;;;;;;;;6488619;31;8876;-62
2022/08/13 05:09:15;;;;;;;;;30.33;26.33;;;;;;;;6490928;31;8911;-62
2022/08/13 05:15:18;;;;;;;;;26.67;24.33;;;;;;;;6489135;46;8885;-62
2022/08/13 05:21:42;;;;;;;;;34.67;28.33;;;;;;;;6491052;31;8957;-61
2022/08/13 05:28:03;;;;;;;;;21.50;18.75;;;;;;;;6489884;39;8879;-62
2022/08/13 05:34:11;;;;;;;;;22.25;22.25;;;;;;;;6489581;39;8926;-62
2022/08/13 05:40:15;;;;;;;;;30.00;27.50;;;;;;;;6487754;39;8849;-62
2022/08/13 05:46:38;;;;;;;;;25.25;25.00;;;;;;;;6487844;46;8892;-62
2022/08/13 05:52:41;;;;;;;;;23.00;23.00;;;;;;;;6489069;31;8931;-62
2022/08/13 05:58:51;;;;;;;;;25.75;24.50;;;;;;;;6488373;31;9044;-62
2022/08/13 06:04:53;;;;;;;;;25.00;23.25;;;;;;;;6489110;39;8916;-61
2022/08/13 06:11:04;;;;;;;;;25.50;21.25;;;;;;;;6488355;46;8849;-62
2022/08/13 06:17:14;;;;;;;;;26.25;25.50;;;;;;;;6488798;46;8915;-60
2022/08/13 06:23:27;;;;;;;;;24.00;22.00;;;;;;;;6488062;47;9098;-61
2022/08/13 06:29:35;;;;;;;;;25.00;21.50;;;;;;;;6488656;47;8952;-62
2022/08/13 06:35:48;;;;;;;;;26.25;25.00;;;;;;;;6488916;39;9057;-61
2022/08/13 06:42:02;;;;;;;;;25.25;23.75;;;;;;;;6487757;39;8920;-61
2022/08/13 06:48:12;;;;;;;;;21.50;19.75;;;;;;;;6488881;39;8944;-61
2022/08/13 06:54:19;;;;;;;;;26.75;22.25;;;;;;;;6489019;39;9000;-62
2022/08/13 07:00:31;;;;;;;;;26.75;24.75;;;;;;;;6490476;39;8947;-62
2022/08/13 07:06:36;;;;;;;;;23.00;22.25;;;;;;;;6489525;39;8967;-62
2022/08/13 07:12:42;;;;;;;;;21.50;19.25;;;;;;;;6490221;31;8925;-61
2022/08/13 07:18:49;;;;;;;;;26.00;24.75;;;;;;;;6490324;39;8869;-62
2022/08/13 07:24:53;;;;;;;;;26.00;25.00;;;;;;;;6489296;31;8953;-62
2022/08/13 07:30:56;;;;;;;;;24.00;21.00;;;;;;;;6490697;39;8818;-62
2022/08/13 07:37:03;;;;;;;;;25.25;21.75;;;;;;;;6488720;31;8992;-62
2022/08/13 07:43:12;;;;;;;;;23.75;22.25;;;;;;;;6488809;31;8924;-61
2022/08/13 07:49:22;;;;;;;;;24.75;22.25;;;;;;;;6489923;31;8864;-62
2022/08/13 07:55:44;;;;;;;;;27.00;25.25;;;;;;;;6489526;31;8878;-62
2022/08/13 08:02:11;;;;;;;;;27.25;24.75;;;;;;;;6489312;31;8927;-62
2022/08/13 08:08:26;;;;;;;;;27.25;26.00;;;;;;;;6489895;31;8846;-62
2022/08/13 08:14:30;;;;;;;;;25.25;24.75;;;;;;;;6489639;39;8888;-63
2022/08/13 08:20:35;;;;;;;;;29.25;28.00;;;;;;;;6489368;46;8986;-62
2022/08/13 08:27:04;;;;;;;;;26.00;21.75;;;;;;;;6489776;46;8907;-62
2022/08/13 08:33:11;;;;;;;;;24.25;22.75;;;;;;;;6489847;39;8914;-61
2022/08/13 08:46:01;;;;;;;;;24.75;22.50;;;;;;;;6488609;39;9032;-62
2022/08/13 08:52:14;;;;;;;;;22.25;22.00;;;;;;;;6488940;31;8878;-62
2022/08/13 08:58:19;;;;;;;;;26.00;23.75;;;;;;;;6489227;46;8872;-63
2022/08/13 09:04:41;;;;;;;;;25.25;24.25;;;;;;;;6488221;31;8988;-62
2022/08/13 09:10:56;;;;;;;;;25.00;24.25;;;;;;;;6490170;31;8907;-62
2022/08/13 09:17:02;;;;;;;;;26.75;23.75;;;;;;;;6489132;31;8962;-62
2022/08/13 09:23:08;;;;;;;;;23.75;21.75;;;;;;;;6489137;39;9575;-63
2022/08/13 09:29:19;;;;;;;;;20.25;20.25;;;;;;;;6488795;39;8882;-62
2022/08/13 09:35:25;;;;;;;;;24.00;21.75;;;;;;;;6489245;31;8982;-61
2022/08/13 09:41:41;;;;;;;;;20.25;20.25;;;;;;;;6488648;46;8949;-62
2022/08/13 09:47:43;;;;;;;;;22.00;22.00;;;;;;;;6489657;31;9583;-61
2022/08/13 09:54:18;;;;;;;;;27.75;23.25;;;;;;;;6489096;39;8946;-62
2022/08/13 10:00:24;;;;;;;;;24.00;21.50;;;;;;;;6488193;46;8919;-62
2022/08/13 10:06:32;;;;;;;;;24.00;22.75;;;;;;;;6488974;46;8866;-62
2022/08/13 10:12:34;;;;;;;;;25.50;25.25;;;;;;;;6489028;31;8915;-61
2022/08/13 10:18:41;;;;;;;;;21.25;19.50;;;;;;;;6487913;39;9030;-63
2022/08/13 10:24:45;;;;;;;;;20.50;18.00;;;;;;;;6488828;39;8947;-62
2022/08/13 10:30:50;;;;;;;;;21.00;18.50;;;;;;;;6487211;47;8870;-62
2022/08/13 10:37:03;;;;;;;;;24.00;21.25;;;;;;;;6488668;31;9179;-63
2022/08/13 10:43:12;;;;;;;;;21.00;20.50;;;;;;;;6488632;31;9048;-62
2022/08/13 10:49:24;;;;;;;;;21.25;21.00;;;;;;;;6488014;47;8837;-62
2022/08/13 10:55:27;;;;;;;;;22.25;21.25;;;;;;;;6488940;31;8857;-61
2022/08/13 11:01:39;;;;;;;;;21.00;18.75;;;;;;;;6487896;39;8966;-62
2022/08/13 11:07:47;;;;;;;;;24.25;22.00;;;;;;;;6487860;39;8850;-62
2022/08/13 11:13:50;;;;;;;;;22.50;22.50;;;;;;;;6487925;47;8947;-62
2022/08/13 11:20:02;;;;;;;;;22.75;21.50;;;;;;;;6489765;39;8834;-62
2022/08/13 11:26:11;;;;;;;;;20.50;20.50;;;;;;;;6488357;31;8947;-62
2022/08/13 11:32:33;;;;;;;;;22.50;21.25;;;;;;;;6488113;47;8901;-62
2022/08/13 11:38:36;;;;;;;;;24.75;22.00;;;;;;;;6488757;39;8928;-62
2022/08/13 11:44:41;;;;;;;;;18.50;18.50;;;;;;;;6487807;39;9525;-61
2022/08/13 11:50:52;;;;;;;;;22.50;21.75;;;;;;;;6490835;31;8845;-62
2022/08/13 11:56:54;;;;;;;;;17.75;15.75;;;;;;;;6489615;39;8939;-60
2022/08/13 12:02:57;;;;;;;;;21.50;21.50;;;;;;;;6489730;31;8860;-61
2022/08/13 12:09:04;;;;;;;;;22.50;21.50;;;;;;;;6489273;46;8878;-61
2022/08/13 12:15:25;;;;;;;;;21.50;21.50;;;;;;;;6489148;31;8974;-62
2022/08/13 12:21:47;;;;;;;;;22.50;21.50;;;;;;;;6489487;46;8948;-62
2022/08/13 12:28:16;;;;;;;;;25.75;23.75;;;;;;;;6490069;39;8853;-62
2022/08/13 12:34:29;;;;;;;;;21.00;19.00;;;;;;;;6489493;39;9019;-63
2022/08/13 12:40:32;;;;;;;;;11.00;11.00;;;;;;;;6489396;31;8892;-63
2022/08/13 12:46:34;;;;;;;;;21.00;20.75;;;;;;;;6490403;31;9018;-63
2022/08/13 12:52:40;;;;;;;;;19.25;18.00;;;;;;;;6488070;39;9593;-61
2022/08/13 12:58:45;;;;;;;;;19.50;16.50;;;;;;;;6488854;39;9548;-62
2022/08/13 13:04:51;;;;;;;;;23.00;20.00;;;;;;;;6489770;46;8963;-62
2022/08/13 13:11:13;;;;;;;;;18.67;18.67;;;;;;;;6489309;31;8862;-61
2022/08/13 13:17:16;;;;;;;;;20.75;19.75;;;;;;;;6489865;31;9000;-62
2022/08/13 13:23:39;;;;;;;;;21.25;20.00;;;;;;;;6488787;46;8900;-62
2022/08/13 13:30:02;;;;;;;;;22.50;22.25;;;;;;;;6490245;31;8872;-61
2022/08/13 13:36:05;;;;;;;;;20.50;18.50;;;;;;;;6489193;39;10307;-62
2022/08/13 13:42:27;;;;;;;;;22.75;20.50;;;;;;;;6489457;31;8928;-63
2022/08/13 13:48:42;;;;;;;;;20.50;20.25;;;;;;;;6488026;31;8920;-61
2022/08/13 13:54:47;;;;;;;;;23.25;20.75;;;;;;;;6489525;31;8857;-62
2022/08/13 14:00:59;;;;;;;;;22.00;20.67;;;;;;;;6488983;39;8949;-62
2022/08/13 14:07:04;;;;;;;;;20.25;19.50;;;;;;;;6487823;39;8892;-62
2022/08/13 14:13:30;;;;;;;;;19.75;19.75;;;;;;;;6487480;46;8878;-62
2022/08/13 14:19:42;;;;;;;;;19.50;19.50;;;;;;;;6486682;31;8884;-63
2022/08/13 14:25:59;;;;;;;;;21.75;21.25;;;;;;;;6487632;39;9000;-62
2022/08/13 14:32:09;;;;;;;;;18.50;18.25;;;;;;;;6486950;47;8927;-62
2022/08/13 14:38:21;;;;;;;;;19.75;19.75;;;;;;;;6487231;31;9016;-62
2022/08/13 14:44:29;;;;;;;;;19.25;18.75;;;;;;;;6486933;47;8905;-62
2022/08/13 14:50:56;;;;;;;;;23.00;21.50;;;;;;;;6486153;39;9012;-62
2022/08/13 14:57:20;;;;;;;;;20.75;19.00;;;;;;;;6486242;39;8912;-62
2022/08/13 15:03:53;;;;;;;;;14.00;12.50;;;;;;;;6486172;47;8988;-62
2022/08/13 15:10:00;;;;;;;;;22.75;22.25;;;;;;;;6487497;39;8993;-62
2022/08/13 15:16:07;;;;;;;;;18.50;17.50;;;;;;;;6487487;31;9032;-62
2022/08/13 15:22:16;;;;;;;;;24.50;23.00;;;;;;;;6489173;39;8900;-61
2022/08/13 15:28:28;;;;;;;;;22.50;20.25;;;;;;;;6488034;39;8845;-62
2022/08/13 15:34:31;;;;;;;;;19.00;19.00;;;;;;;;6487901;31;9032;-62
2022/08/13 15:40:35;;;;;;;;;20.25;20.25;;;;;;;;6489121;31;8886;-62
2022/08/13 15:46:39;;;;;;;;;26.00;22.50;;;;;;;;6488980;31;8900;-62
2022/08/13 15:52:42;;;;;;;;;23.00;20.00;;;;;;;;6488419;39;9281;-62
2022/08/13 15:58:47;;;;;;;;;18.00;18.00;;;;;;;;6487985;39;8900;-62
2022/08/13 16:04:51;;;;;;;;;20.50;18.75;;;;;;;;6488266;39;8917;-63
2022/08/13 16:11:00;;;;;;;;;19.00;18.25;;;;;;;;6488512;39;8931;-61
2022/08/13 16:17:05;;;;;;;;;23.50;22.25;;;;;;;;6488432;39;8892;-63
2022/08/13 16:23:12;;;;;;;;;27.25;23.00;;;;;;;;6488111;31;8968;-63
2022/08/13 16:29:17;;;;;;;;;20.25;18.50;;;;;;;;6488494;31;9016;-62
2022/08/13 16:35:25;;;;;;;;;23.75;23.75;;;;;;;;6488112;31;9060;-62
2022/08/13 16:41:42;;;;;;;;;21.25;20.50;;;;;;;;6486873;39;8866;-61
2022/08/13 16:47:50;;;;;;;;;19.00;16.75;;;;;;;;6486522;46;8861;-63
2022/08/13 16:53:53;;;;;;;;;15.75;15.75;;;;;;;;6487459;39;8881;-62
2022/08/13 17:00:25;;;;;;;;;20.25;20.25;;;;;;;;6488095;39;8884;-62
2022/08/13 17:12:54;;;;;;;;;20.50;20.25;;;;;;;;6487531;39;8877;-61
2022/08/13 17:18:59;;;;;;;;;23.00;22.00;;;;;;;;6487347;39;8961;-63
2022/08/13 17:25:06;;;;;;;;;20.25;20.00;;;;;;;;6487220;31;8920;-61
2022/08/13 17:31:10;;;;;;;;;24.50;22.50;;;;;;;;6486957;46;8877;-63
2022/08/13 17:37:16;;;;;;;;;20.75;20.00;;;;;;;;6487891;31;8908;-63
2022/08/13 17:43:26;;;;;;;;;23.75;20.25;;;;;;;;6487069;39;8948;-61
2022/08/13 17:49:49;;;;;;;;;27.00;26.00;;;;;;;;6487810;39;8900;-62
2022/08/13 17:55:51;;;;;;;;;23.75;23.50;;;;;;;;6487603;31;8870;-62
2022/08/13 18:01:54;;;;;;;;;29.25;25.00;;;;;;;;6487528;46;8880;-61
2022/08/13 18:07:57;;;;;;;;;24.25;22.75;;;;;;;;6487387;39;8874;-62
2022/08/13 18:14:02;;;;;;;;;22.75;22.50;;;;;;;;6486794;39;9559;-62
2022/08/13 18:20:13;;;;;;;;;24.00;23.50;;;;;;;;6486851;46;8898;-62
2022/08/13 18:26:15;;;;;;;;;25.00;25.00;;;;;;;;6486356;31;8916;-61
2022/08/13 18:32:18;;;;;;;;;28.25;24.25;;;;;;;;6486446;39;8956;-62
2022/08/13 18:38:28;;;;;;;;;27.25;26.25;;;;;;;;6486383;39;8939;-61
2022/08/13 18:44:39;;;;;;;;;31.00;30.50;;;;;;;;6486207;39;8909;-63
2022/08/13 18:50:41;;;;;;;;;26.50;25.50;;;;;;;;6487702;31;8961;-62
2022/08/13 18:56:55;;;;;;;;;27.75;25.75;;;;;;;;6487878;39;9109;-62
2022/08/13 19:03:00;;;;;;;;;29.75;25.75;;;;;;;;6487909;39;8935;-62
2022/08/13 19:09:05;;;;;;;;;24.00;23.25;;;;;;;;6489133;39;8865;-62
2022/08/13 19:15:13;;;;;;;;;22.75;22.25;;;;;;;;6488371;39;8887;-61
2022/08/13 19:21:18;;;;;;;;;18.75;18.75;;;;;;;;6488292;39;8889;-61
2022/08/13 19:27:42;;;;;;;;;25.50;23.00;;;;;;;;6487916;46;8915;-61
2022/08/13 19:34:08;;;;;;;;;29.25;26.00;;;;;;;;6487982;39;9007;-61
2022/08/13 19:40:20;;;;;;;;;24.00;21.75;;;;;;;;6487862;39;8887;-62
2022/08/13 19:46:37;;;;;;;;;24.25;23.25;;;;;;;;6488181;39;8925;-63
2022/08/13 19:52:43;;;;;;;;;22.25;22.25;;;;;;;;6487569;46;8958;-63
2022/08/13 19:58:47;;;;;;;;;23.00;21.25;;;;;;;;6487928;46;8912;-62
2022/08/13 20:04:52;;;;;;;;;22.50;20.50;;;;;;;;6488031;31;8875;-62
2022/08/13 20:11:14;;;;;;;;;29.50;25.00;;;;;;;;6487816;46;8872;-61
2022/08/13 20:17:24;;;;;;;;;20.25;19.25;;;;;;;;6487250;31;8883;-62
2022/08/13 20:23:36;;;;;;;;;22.50;22.00;;;;;;;;6487017;31;8900;-62
2022/08/13 20:29:41;;;;;;;;;18.00;17.00;;;;;;;;6487633;46;8883;-62
2022/08/13 20:35:48;;;;;;;;;16.00;16.00;;;;;;;;6487679;39;9034;-62
2022/08/13 20:41:54;;;;;;;;;18.75;17.25;;;;;;;;6488339;31;8887;-62
2022/08/13 20:47:57;;;;;;;;;19.00;18.00;;;;;;;;6487789;31;9059;-61
2022/08/13 20:54:07;;;;;;;;;21.50;16.75;;;;;;;;6486979;31;8974;-62
2022/08/13 21:00:11;;;;;;;;;19.50;16.00;;;;;;;;6437436;31;5000939;-62
2022/08/13 21:06:35;;;;;;;;;15.00;14.25;;;;;;;;6487686;39;8920;-62
2022/08/13 21:13:04;;;;;;;;;19.50;18.00;;;;;;;;6487932;39;9450;-62
2022/08/13 21:19:12;;;;;;;;;22.25;19.75;;;;;;;;6487789;31;8869;-62
2022/08/13 21:25:34;;;;;;;;;19.00;17.25;;;;;;;;6487321;46;8891;-62
2022/08/13 21:32:00;;;;;;;;;18.00;16.50;;;;;;;;6486850;46;8963;-61
2022/08/13 21:38:12;;;;;;;;;14.00;14.00;;;;;;;;6487194;39;9813;-62
2022/08/13 21:44:14;;;;;;;;;16.75;16.50;;;;;;;;6487013;31;9107;-61
2022/08/13 21:50:22;;;;;;;;;18.25;17.50;;;;;;;;6486943;39;8884;-62
2022/08/13 21:56:33;;;;;;;;;19.25;18.25;;;;;;;;6488077;39;9566;-61
2022/08/13 22:02:36;;;;;;;;;17.50;17.00;;;;;;;;6487450;31;8951;-62
2022/08/13 22:08:38;;;;;;;;;19.00;17.50;;;;;;;;6486017;46;8924;-63
2022/08/13 22:14:46;;;;;;;;;24.00;20.25;;;;;;;;6487177;31;8913;-61
2022/08/13 22:20:51;;;;;;;;;19.00;18.25;;;;;;;;6488327;31;8845;-62
2022/08/13 22:26:53;;;;;;;;;22.25;18.50;;;;;;;;6485752;39;8905;-61
2022/08/13 22:32:56;;;;;;;;;17.75;17.00;;;;;;;;6487656;39;9598;-61
2022/08/13 22:39:06;;;;;;;;;20.25;18.00;;;;;;;;6487551;47;8889;-62
2022/08/13 22:45:10;;;;;;;;;16.50;14.50;;;;;;;;6486369;31;8892;-61
2022/08/13 22:51:16;;;;;;;;;23.00;17.25;;;;;;;;6486361;39;8878;-62
2022/08/13 22:57:22;;;;;;;;;18.75;17.50;;;;;;;;6486678;39;8919;-60
2022/08/13 23:03:24;;;;;;;;;20.50;19.00;;;;;;;;6486280;39;8914;-62
2022/08/13 23:09:27;;;;;;;;;23.25;20.00;;;;;;;;6486497;47;8865;-62
2022/08/13 23:15:32;;;;;;;;;18.25;17.25;;;;;;;;6486807;39;8834;-62
2022/08/13 23:21:35;;;;;;;;;21.75;19.50;;;;;;;;6486236;47;8940;-61
2022/08/13 23:27:41;;;;;;;;;19.00;18.50;;;;;;;;6485141;47;8925;-63
2022/08/13 23:33:44;;;;;;;;;20.50;20.00;;;;;;;;6486692;39;8986;-61
2022/08/13 23:39:46;;;;;;;;;26.00;23.00;;;;;;;;6487937;31;8894;-62
2022/08/13 23:45:51;;;;;;;;;19.25;17.00;;;;;;;;6488356;39;8916;-61
2022/08/13 23:51:54;;;;;;;;;15.25;14.75;;;;;;;;6488500;46;8881;-61
2022/08/13 23:57:58;;;;;;;;;19.00;19.00;;;;;;;;6487825;39;8885;-62
